sensor_id;sensor_type;location;lat;lon;timestamp;pressure;altitude;pressure_sealevel;temperature;humidity
11041;BME280;5573;49.592;8.662;2023-02-24T00:01:33;99537.31;;;9.49;100.00
11041;BME280;5573;49.592;8.662;2023-02-24T00:04:05;99532.94;;;9.41;100.00
11041;BME280;5573;49.592;8.662;2023-02-24T00:06:36;99532.91;;;9.34;100.00
11041;BME280;5573;49.592;8.662;2023-02-24T00:09:07;99526.22;;;9.35;100.00
11041;BME280;5573;49.592;8.662;2023-02-24T00:11:36;99523.06;;;9.33;100.00
11041;BME280;5573;49.592;8.662;2023-02-24T00:14:06;99527.84;;;9.40;100.00
11041;BME280;5573;49.592;8.662;2023-02-24T00:16:35;99529.41;;;9.41;100.00
11041;BME280;5573;49.592;8.662;2023-02-24T00:19:03;99519.19;;;9.38;100.00
11041;BME280;5573;49.592;8.662;2023-02-24T00:21:34;99524.31;;;9.39;100.00
11041;BME280;5573;49.592;8.662;2023-02-24T00:24:02;99523.84;;;9.33;100.00
11041;BME280;5573;49.592;8.662;2023-02-24T00:26:29;99519.22;;;9.41;100.00
11041;BME280;5573;49.592;8.662;2023-02-24T00:28:57;99498.25;;;9.19;100.00
11041;BME280;5573;49.592;8.662;2023-02-24T00:31:32;99508.53;;;9.29;100.00
11041;BME280;5573;49.592;8.662;2023-02-24T00:34:01;99510.91;;;9.30;100.00
11041;BME280;5573;49.592;8.662;2023-02-24T00:36:30;99497.19;;;9.30;100.00
11041;BME280;5573;49.592;8.662;2023-02-24T00:39:02;99502.31;;;9.35;100.00
11041;BME280;5573;49.592;8.662;2023-02-24T00:41:35;99499.53;;;9.28;100.00
11041;BME280;5573;49.592;8.662;2023-02-24T00:44:05;99492.84;;;9.26;100.00
11041;BME280;5573;49.592;8.662;2023-02-24T00:46:37;99485.31;;;9.15;100.00
11041;BME280;5573;49.592;8.662;2023-02-24T00:49:07;99472.00;;;9.18;100.00
11041;BME280;5573;49.592;8.662;2023-02-24T00:51:38;99485.75;;;9.25;100.00
11041;BME280;5573;49.592;8.662;2023-02-24T00:54:07;99482.91;;;9.10;100.00
11041;BME280;5573;49.592;8.662;2023-02-24T00:56:35;99494.28;;;9.09;100.00
11041;BME280;5573;49.592;8.662;2023-02-24T00:59:03;99489.91;;;9.04;100.00
11041;BME280;5573;49.592;8.662;2023-02-24T01:01:32;99484.09;;;9.09;100.00
11041;BME280;5573;49.592;8.662;2023-02-24T01:04:03;99484.50;;;9.11;100.00
11041;BME280;5573;49.592;8.662;2023-02-24T01:06:38;99474.28;;;9.12;100.00
11041;BME280;5573;49.592;8.662;2023-02-24T01:09:07;99466.47;;;9.14;100.00
11041;BME280;5573;49.592;8.662;2023-02-24T01:11:37;99464.78;;;9.02;100.00
11041;BME280;5573;49.592;8.662;2023-02-24T01:14:25;99465.63;;;9.06;100.00
11041;BME280;5573;49.592;8.662;2023-02-24T01:16:54;99459.31;;;9.02;100.00
11041;BME280;5573;49.592;8.662;2023-02-24T01:19:26;99464.00;;;8.98;100.00
11041;BME280;5573;49.592;8.662;2023-02-24T01:22:00;99454.91;;;8.90;100.00
11041;BME280;5573;49.592;8.662;2023-02-24T01:24:30;99456.88;;;8.90;100.00
11041;BME280;5573;49.592;8.662;2023-02-24T01:26:58;99460.72;;;8.85;100.00
11041;BME280;5573;49.592;8.662;2023-02-24T01:29:26;99452.88;;;8.80;100.00
11041;BME280;5573;49.592;8.662;2023-02-24T01:31:54;99452.41;;;8.71;100.00
11041;BME280;5573;49.592;8.662;2023-02-24T01:34:26;99448.84;;;8.67;100.00
11041;BME280;5573;49.592;8.662;2023-02-24T01:36:56;99454.34;;;8.70;100.00
11041;BME280;5573;49.592;8.662;2023-02-24T01:39:23;99457.06;;;8.67;100.00
11041;BME280;5573;49.592;8.662;2023-02-24T01:41:51;99455.09;;;8.67;100.00
11041;BME280;5573;49.592;8.662;2023-02-24T01:45:00;99446.06;;;8.63;100.00
11041;BME280;5573;49.592;8.662;2023-02-24T01:47:29;99448.34;;;8.58;100.00
11041;BME280;5573;49.592;8.662;2023-02-24T01:49:59;99447.97;;;8.59;100.00
11041;BME280;5573;49.592;8.662;2023-02-24T01:52:30;99441.34;;;8.60;100.00
11041;BME280;5573;49.592;8.662;2023-02-24T01:55:03;99429.16;;;8.58;100.00
11041;BME280;5573;49.592;8.662;2023-02-24T01:57:36;99436.25;;;8.62;100.00
11041;BME280;5573;49.592;8.662;2023-02-24T02:00:07;99410.22;;;8.42;100.00
11041;BME280;5573;49.592;8.662;2023-02-24T02:02:42;99441.38;;;8.67;100.00
11041;BME280;5573;49.592;8.662;2023-02-24T02:05:14;99433.91;;;8.64;100.00
11041;BME280;5573;49.592;8.662;2023-02-24T02:07:42;99441.84;;;8.73;100.00
11041;BME280;5573;49.592;8.662;2023-02-24T02:10:16;99433.25;;;8.78;100.00
11041;BME280;5573;49.592;8.662;2023-02-24T02:12:44;99431.28;;;8.79;100.00
11041;BME280;5573;49.592;8.662;2023-02-24T02:15:14;99427.00;;;8.78;100.00
11041;BME280;5573;49.592;8.662;2023-02-24T02:17:52;99431.66;;;8.73;100.00
11041;BME280;5573;49.592;8.662;2023-02-24T02:23:48;99420.72;;;8.77;100.00
11041;BME280;5573;49.592;8.662;2023-02-24T02:26:39;99422.25;;;8.74;100.00
11041;BME280;5573;49.592;8.662;2023-02-24T02:29:27;99411.69;;;8.73;100.00
11041;BME280;5573;49.592;8.662;2023-02-24T02:32:16;99410.13;;;8.75;100.00
11041;BME280;5573;49.592;8.662;2023-02-24T02:34:54;99395.53;;;8.64;100.00
11041;BME280;5573;49.592;8.662;2023-02-24T02:37:29;99405.06;;;8.78;100.00
11041;BME280;5573;49.592;8.662;2023-02-24T02:40:03;99400.66;;;8.69;100.00
11041;BME280;5573;49.592;8.662;2023-02-24T02:42:43;99401.03;;;8.68;100.00
11041;BME280;5573;49.592;8.662;2023-02-24T02:45:17;99404.16;;;8.66;100.00
11041;BME280;5573;49.592;8.662;2023-02-24T02:47:49;99404.50;;;8.61;100.00
11041;BME280;5573;49.592;8.662;2023-02-24T02:50:24;99390.41;;;8.59;100.00
11041;BME280;5573;49.592;8.662;2023-02-24T02:52:56;99389.63;;;8.59;100.00
11041;BME280;5573;49.592;8.662;2023-02-24T02:55:28;99386.09;;;8.58;100.00
11041;BME280;5573;49.592;8.662;2023-02-24T02:58:01;99379.69;;;8.43;100.00
11041;BME280;5573;49.592;8.662;2023-02-24T03:00:32;99389.88;;;8.46;100.00
11041;BME280;5573;49.592;8.662;2023-02-24T03:03:05;99382.44;;;8.47;100.00
11041;BME280;5573;49.592;8.662;2023-02-24T03:05:40;99392.69;;;8.53;100.00
11041;BME280;5573;49.592;8.662;2023-02-24T03:08:13;99390.72;;;8.50;100.00
11041;BME280;5573;49.592;8.662;2023-02-24T03:10:44;99384.84;;;8.52;100.00
11041;BME280;5573;49.592;8.662;2023-02-24T03:13:18;99380.94;;;8.53;100.00
11041;BME280;5573;49.592;8.662;2023-02-24T03:15:49;99378.97;;;8.50;100.00
11041;BME280;5573;49.592;8.662;2023-02-24T03:18:21;99393.09;;;8.52;100.00
11041;BME280;5573;49.592;8.662;2023-02-24T03:21:00;99384.88;;;8.55;100.00
11041;BME280;5573;49.592;8.662;2023-02-24T03:23:34;99382.94;;;8.56;100.00
11041;BME280;5573;49.592;8.662;2023-02-24T03:26:10;99380.53;;;8.51;100.00
11041;BME280;5573;49.592;8.662;2023-02-24T03:28:52;99347.88;;;8.39;100.00
11041;BME280;5573;49.592;8.662;2023-02-24T03:31:29;99372.75;;;8.57;100.00
11041;BME280;5573;49.592;8.662;2023-02-24T03:34:04;99368.84;;;8.58;100.00
11041;BME280;5573;49.592;8.662;2023-02-24T03:36:35;99368.41;;;8.55;100.00
11041;BME280;5573;49.592;8.662;2023-02-24T03:39:04;99375.03;;;8.51;100.00
11041;BME280;5573;49.592;8.662;2023-02-24T03:41:45;99362.97;;;8.59;100.00
11041;BME280;5573;49.592;8.662;2023-02-24T03:44:16;99357.13;;;8.61;100.00
11041;BME280;5573;49.592;8.662;2023-02-24T03:46:44;99368.09;;;8.64;100.00
11041;BME280;5573;49.592;8.662;2023-02-24T03:49:13;99350.00;;;8.52;100.00
11041;BME280;5573;49.592;8.662;2023-02-24T03:51:57;99362.16;;;8.55;100.00
11041;BME280;5573;49.592;8.662;2023-02-24T03:54:55;99360.22;;;8.59;100.00
11041;BME280;5573;49.592;8.662;2023-02-24T03:57:33;99349.28;;;8.59;100.00
11041;BME280;5573;49.592;8.662;2023-02-24T04:00:30;99351.19;;;8.55;100.00
11041;BME280;5573;49.592;8.662;2023-02-24T04:03:11;99348.81;;;8.50;100.00
11041;BME280;5573;49.592;8.662;2023-02-24T04:05:44;99351.16;;;8.48;100.00
11041;BME280;5573;49.592;8.662;2023-02-24T04:08:16;99344.44;;;8.42;100.00
11041;BME280;5573;49.592;8.662;2023-02-24T04:10:49;99349.13;;;8.41;100.00
11041;BME280;5573;49.592;8.662;2023-02-24T04:13:30;99347.94;;;8.42;100.00
11041;BME280;5573;49.592;8.662;2023-02-24T04:16:10;99340.47;;;8.39;100.00
11041;BME280;5573;49.592;8.662;2023-02-24T04:18:46;99347.88;;;8.35;100.00
11041;BME280;5573;49.592;8.662;2023-02-24T04:21:18;99345.81;;;8.28;100.00
11041;BME280;5573;49.592;8.662;2023-02-24T04:23:50;99339.94;;;8.26;100.00
11041;BME280;5573;49.592;8.662;2023-02-24T04:26:19;99336.41;;;8.26;100.00
11041;BME280;5573;49.592;8.662;2023-02-24T04:28:48;99332.84;;;8.22;100.00
11041;BME280;5573;49.592;8.662;2023-02-24T04:31:17;99330.50;;;8.20;100.00
11041;BME280;5573;49.592;8.662;2023-02-24T04:33:49;99329.22;;;8.10;100.00
11041;BME280;5573;49.592;8.662;2023-02-24T04:36:24;99321.44;;;8.12;100.00
11041;BME280;5573;49.592;8.662;2023-02-24T04:38:54;99321.06;;;8.14;100.00
11041;BME280;5573;49.592;8.662;2023-02-24T04:41:21;99321.47;;;8.16;100.00
11041;BME280;5573;49.592;8.662;2023-02-24T04:43:50;99318.63;;;8.05;100.00
11041;BME280;5573;49.592;8.662;2023-02-24T04:46:18;99321.78;;;8.11;100.00
11041;BME280;5573;49.592;8.662;2023-02-24T04:48:46;99306.94;;;8.12;100.00
11041;BME280;5573;49.592;8.662;2023-02-24T04:51:14;99312.81;;;8.10;100.00
11041;BME280;5573;49.592;8.662;2023-02-24T04:53:42;99311.25;;;8.13;100.00
11041;BME280;5573;49.592;8.662;2023-02-24T04:56:11;99298.72;;;8.12;100.00
11041;BME280;5573;49.592;8.662;2023-02-24T04:58:39;99289.69;;;8.08;100.00
11041;BME280;5573;49.592;8.662;2023-02-24T05:01:09;99286.81;;;7.93;100.00
11041;BME280;5573;49.592;8.662;2023-02-24T05:03:38;99284.16;;;8.04;100.00
11041;BME280;5573;49.592;8.662;2023-02-24T05:06:13;99279.88;;;8.03;100.00
11041;BME280;5573;49.592;8.662;2023-02-24T05:08:41;99249.16;;;7.83;100.00
11041;BME280;5573;49.592;8.662;2023-02-24T05:11:13;99277.34;;;7.87;100.00
11041;BME280;5573;49.592;8.662;2023-02-24T05:13:42;99272.75;;;7.95;100.00
11041;BME280;5573;49.592;8.662;2023-02-24T05:16:14;99270.00;;;7.95;100.00
11041;BME280;5573;49.592;8.662;2023-02-24T05:18:42;99266.09;;;7.96;100.00
11041;BME280;5573;49.592;8.662;2023-02-24T05:21:12;99249.59;;;7.89;100.00
11041;BME280;5573;49.592;8.662;2023-02-24T05:23:58;99253.91;;;7.86;100.00
11041;BME280;5573;49.592;8.662;2023-02-24T05:26:34;99264.44;;;7.88;100.00
11041;BME280;5573;49.592;8.662;2023-02-24T05:29:04;99253.91;;;7.86;100.00
11041;BME280;5573;49.592;8.662;2023-02-24T05:31:33;99246.78;;;7.82;100.00
11041;BME280;5573;49.592;8.662;2023-02-24T05:34:04;99242.13;;;7.82;100.00
11041;BME280;5573;49.592;8.662;2023-02-24T05:36:35;99238.19;;;7.83;100.00
11041;BME280;5573;49.592;8.662;2023-02-24T05:39:04;99244.91;;;7.89;100.00
11041;BME280;5573;49.592;8.662;2023-02-24T05:41:36;99243.56;;;7.72;100.00
11041;BME280;5573;49.592;8.662;2023-02-24T05:44:06;99234.53;;;7.68;100.00
11041;BME280;5573;49.592;8.662;2023-02-24T05:46:36;99226.97;;;7.54;100.00
11041;BME280;5573;49.592;8.662;2023-02-24T05:49:05;99237.31;;;7.72;100.00
11041;BME280;5573;49.592;8.662;2023-02-24T05:51:36;99231.03;;;7.71;100.00
11041;BME280;5573;49.592;8.662;2023-02-24T05:54:06;99230.63;;;7.69;100.00
11041;BME280;5573;49.592;8.662;2023-02-24T05:56:37;99226.31;;;7.68;100.00
11041;BME280;5573;49.592;8.662;2023-02-24T05:59:07;99230.31;;;7.74;100.00
11041;BME280;5573;49.592;8.662;2023-02-24T06:01:37;99227.94;;;7.73;100.00
11041;BME280;5573;49.592;8.662;2023-02-24T06:04:08;99228.28;;;7.68;100.00
11041;BME280;5573;49.592;8.662;2023-02-24T06:06:37;99221.63;;;7.69;100.00
11041;BME280;5573;49.592;8.662;2023-02-24T06:09:06;99220.06;;;7.68;100.00
11041;BME280;5573;49.592;8.662;2023-02-24T06:11:38;99215.75;;;7.67;100.00
11041;BME280;5573;49.592;8.662;2023-02-24T06:14:08;99225.97;;;7.73;100.00
11041;BME280;5573;49.592;8.662;2023-02-24T06:16:38;99226.38;;;7.76;100.00
11041;BME280;5573;49.592;8.662;2023-02-24T06:19:07;99224.03;;;7.74;100.00
11041;BME280;5573;49.592;8.662;2023-02-24T06:21:37;99225.97;;;7.70;100.00
11041;BME280;5573;49.592;8.662;2023-02-24T06:24:10;99226.38;;;7.76;100.00
11041;BME280;5573;49.592;8.662;2023-02-24T06:26:41;99220.50;;;7.73;100.00
11041;BME280;5573;49.592;8.662;2023-02-24T06:29:13;99220.22;;;7.82;100.00
11041;BME280;5573;49.592;8.662;2023-02-24T06:31:41;99222.94;;;7.82;100.00
11041;BME280;5573;49.592;8.662;2023-02-24T06:34:10;99224.88;;;7.78;100.00
11041;BME280;5573;49.592;8.662;2023-02-24T06:36:38;99215.56;;;7.86;100.00
11041;BME280;5573;49.592;8.662;2023-02-24T06:39:08;99217.47;;;7.86;100.00
11041;BME280;5573;49.592;8.662;2023-02-24T06:41:41;99208.56;;;7.96;100.00
11041;BME280;5573;49.592;8.662;2023-02-24T06:44:08;99211.34;;;8.00;100.00
11041;BME280;5573;49.592;8.662;2023-02-24T06:46:36;99210.94;;;7.98;100.00
11041;BME280;5573;49.592;8.662;2023-02-24T06:49:04;99215.72;;;8.08;100.00
11041;BME280;5573;49.592;8.662;2023-02-24T06:51:32;99220.44;;;8.11;100.00
11041;BME280;5573;49.592;8.662;2023-02-24T06:54:00;99215.69;;;8.04;100.00
11041;BME280;5573;49.592;8.662;2023-02-24T06:56:28;99229.84;;;8.10;100.00
11041;BME280;5573;49.592;8.662;2023-02-24T06:58:59;99229.06;;;8.13;100.00
11041;BME280;5573;49.592;8.662;2023-02-24T07:01:27;99232.63;;;8.17;100.00
11041;BME280;5573;49.592;8.662;2023-02-24T07:03:56;99222.84;;;8.16;100.00
11041;BME280;5573;49.592;8.662;2023-02-24T07:06:46;99219.44;;;8.33;100.00
11041;BME280;5573;49.592;8.662;2023-02-24T07:09:15;99214.31;;;8.28;100.00
11041;BME280;5573;49.592;8.662;2023-02-24T07:11:45;99222.63;;;8.39;100.00
11041;BME280;5573;49.592;8.662;2023-02-24T07:14:19;99217.63;;;8.48;100.00
11041;BME280;5573;49.592;8.662;2023-02-24T07:16:48;99227.41;;;8.49;100.00
11041;BME280;5573;49.592;8.662;2023-02-24T07:19:21;99225.47;;;8.50;100.00
11041;BME280;5573;49.592;8.662;2023-02-24T07:21:49;99223.50;;;8.50;100.00
11041;BME280;5573;49.592;8.662;2023-02-24T07:24:20;99220.78;;;8.58;100.00
11041;BME280;5573;49.592;8.662;2023-02-24T07:26:55;99211.88;;;8.71;100.00
11041;BME280;5573;49.592;8.662;2023-02-24T07:29:27;99224.78;;;8.67;100.00
11041;BME280;5573;49.592;8.662;2023-02-24T07:31:57;99214.56;;;8.64;100.00
11041;BME280;5573;49.592;8.662;2023-02-24T07:34:26;99211.56;;;8.84;100.00
11041;BME280;5573;49.592;8.662;2023-02-24T07:36:55;99209.22;;;8.93;100.00
11041;BME280;5573;49.592;8.662;2023-02-24T07:39:23;99214.69;;;8.86;100.00
11041;BME280;5573;49.592;8.662;2023-02-24T07:41:57;99201.81;;;8.97;100.00
11041;BME280;5573;49.592;8.662;2023-02-24T07:44:26;99206.13;;;8.98;100.00
11041;BME280;5573;49.592;8.662;2023-02-24T07:46:54;99210.84;;;9.01;100.00
11041;BME280;5573;49.592;8.662;2023-02-24T07:49:25;99211.25;;;9.03;100.00
11041;BME280;5573;49.592;8.662;2023-02-24T07:51:55;99205.72;;;9.00;100.00
11041;BME280;5573;49.592;8.662;2023-02-24T07:54:25;99201.44;;;8.99;100.00
11041;BME280;5573;49.592;8.662;2023-02-24T07:56:56;99179.50;;;9.06;100.00
11041;BME280;5573;49.592;8.662;2023-02-24T07:59:28;99205.44;;;9.26;100.00
11041;BME280;5573;49.592;8.662;2023-02-24T08:01:56;99198.03;;;9.34;100.00
11041;BME280;5573;49.592;8.662;2023-02-24T08:04:25;99202.34;;;9.42;100.00
11041;BME280;5573;49.592;8.662;2023-02-24T08:06:54;99187.44;;;9.43;100.00
11041;BME280;5573;49.592;8.662;2023-02-24T08:09:26;99188.59;;;9.42;100.00
11041;BME280;5573;49.592;8.662;2023-02-24T08:12:15;99192.16;;;9.46;100.00
11041;BME280;5573;49.592;8.662;2023-02-24T08:14:46;99182.75;;;9.54;100.00
11041;BME280;5573;49.592;8.662;2023-02-24T08:17:17;99181.19;;;9.50;100.00
11041;BME280;5573;49.592;8.662;2023-02-24T08:19:46;99187.47;;;9.61;100.00
11041;BME280;5573;49.592;8.662;2023-02-24T08:22:15;99181.16;;;9.46;100.00
11041;BME280;5573;49.592;8.662;2023-02-24T08:24:46;99174.13;;;9.52;100.00
11041;BME280;5573;49.592;8.662;2023-02-24T08:27:15;99172.97;;;9.53;100.00
11041;BME280;5573;49.592;8.662;2023-02-24T08:29:50;99173.34;;;9.48;100.00
11041;BME280;5573;49.592;8.662;2023-02-24T08:32:26;99167.06;;;9.59;100.00
11041;BME280;5573;49.592;8.662;2023-02-24T08:35:00;99165.53;;;9.75;100.00
11041;BME280;5573;49.592;8.662;2023-02-24T08:37:31;99169.47;;;9.85;100.00
11041;BME280;5573;49.592;8.662;2023-02-24T08:40:08;99159.66;;;9.81;100.00
11041;BME280;5573;49.592;8.662;2023-02-24T08:43:01;99169.47;;;9.85;100.00
11041;BME280;5573;49.592;8.662;2023-02-24T08:45:44;99157.69;;;9.85;100.00
11041;BME280;5573;49.592;8.662;2023-02-24T08:48:13;99158.44;;;10.07;100.00
11041;BME280;5573;49.592;8.662;2023-02-24T08:50:59;99158.84;;;10.12;100.00
11041;BME280;5573;49.592;8.662;2023-02-24T08:53:28;99155.31;;;10.23;100.00
11041;BME280;5573;49.592;8.662;2023-02-24T08:55:58;99159.63;;;10.42;100.00
11041;BME280;5573;49.592;8.662;2023-02-24T08:58:26;99159.63;;;10.27;100.00
11041;BME280;5573;49.592;8.662;2023-02-24T09:00:57;99156.44;;;10.50;100.00
11041;BME280;5573;49.592;8.662;2023-02-24T09:03:26;99152.16;;;10.42;100.00
11041;BME280;5573;49.592;8.662;2023-02-24T09:05:59;99144.34;;;9.97;100.00
11041;BME280;5573;49.592;8.662;2023-02-24T09:08:31;99143.94;;;9.99;100.00
11041;BME280;5573;49.592;8.662;2023-02-24T09:11:01;99137.66;;;9.95;100.00
11041;BME280;5573;49.592;8.662;2023-02-24T09:13:35;99129.81;;;9.86;100.00
11041;BME280;5573;49.592;8.662;2023-02-24T09:16:04;99140.44;;;9.81;100.00
11041;BME280;5573;49.592;8.662;2023-02-24T09:18:32;99129.03;;;9.86;100.00
11041;BME280;5573;49.592;8.662;2023-02-24T09:21:08;99126.66;;;10.13;100.00
11041;BME280;5573;49.592;8.662;2023-02-24T09:24:03;99122.72;;;10.35;100.00
11041;BME280;5573;49.592;8.662;2023-02-24T09:26:33;99097.56;;;10.44;97.75
11041;BME280;5573;49.592;8.662;2023-02-24T09:29:09;99116.63;;;10.87;97.73
11041;BME280;5573;49.592;8.662;2023-02-24T09:32:00;99118.78;;;11.21;95.45
11041;BME280;5573;49.592;8.662;2023-02-24T09:34:32;99107.06;;;11.10;93.55
11041;BME280;5573;49.592;8.662;2023-02-24T09:37:01;99102.28;;;11.21;94.91
11041;BME280;5573;49.592;8.662;2023-02-24T09:39:30;99105.41;;;11.27;88.83
11041;BME280;5573;49.592;8.662;2023-02-24T09:42:22;99102.88;;;11.47;87.49
11041;BME280;5573;49.592;8.662;2023-02-24T09:45:03;99093.34;;;11.62;85.92
11041;BME280;5573;49.592;8.662;2023-02-24T09:47:40;99097.03;;;11.93;84.03
11041;BME280;5573;49.592;8.662;2023-02-24T09:50:28;99101.13;;;11.71;82.61
11041;BME280;5573;49.592;8.662;2023-02-24T09:53:28;99094.47;;;11.68;81.54
11041;BME280;5573;49.592;8.662;2023-02-24T09:56:14;99093.13;;;11.87;83.06
11041;BME280;5573;49.592;8.662;2023-02-24T10:01:32;99068.06;;;11.74;84.58
11041;BME280;5573;49.592;8.662;2023-02-24T10:04:23;99083.13;;;11.59;84.74
11041;BME280;5573;49.592;8.662;2023-02-24T10:06:58;99065.59;;;11.84;83.12
11041;BME280;5573;49.592;8.662;2023-02-24T10:09:32;99067.06;;;11.50;84.95
11041;BME280;5573;49.592;8.662;2023-02-24T10:12:05;99075.38;;;11.43;86.17
11041;BME280;5573;49.592;8.662;2023-02-24T10:14:43;99054.34;;;11.64;85.21
11041;BME280;5573;49.592;8.662;2023-02-24T10:17:19;99066.34;;;11.88;84.02
11041;BME280;5573;49.592;8.662;2023-02-24T10:19:54;99071.56;;;11.78;82.15
11041;BME280;5573;49.592;8.662;2023-02-24T10:22:36;99062.44;;;11.85;82.90
11041;BME280;5573;49.592;8.662;2023-02-24T10:25:27;99061.06;;;11.63;86.12
11041;BME280;5573;49.592;8.662;2023-02-24T10:28:10;99051.16;;;11.69;86.01
11041;BME280;5573;49.592;8.662;2023-02-24T10:30:51;99053.03;;;11.79;85.10
11041;BME280;5573;49.592;8.662;2023-02-24T10:33:33;99056.22;;;11.74;87.21
11041;BME280;5573;49.592;8.662;2023-02-24T10:36:08;99048.38;;;11.72;86.44
11041;BME280;5573;49.592;8.662;2023-02-24T10:38:38;99037.78;;;11.71;85.74
11041;BME280;5573;49.592;8.662;2023-02-24T10:41:12;99047.31;;;12.04;83.21
11041;BME280;5573;49.592;8.662;2023-02-24T10:43:52;99038.84;;;12.22;81.20
11041;BME280;5573;49.592;8.662;2023-02-24T10:46:25;99034.31;;;12.39;81.31
11041;BME280;5573;49.592;8.662;2023-02-24T10:49:09;99028.88;;;12.32;79.85
11041;BME280;5573;49.592;8.662;2023-02-24T10:51:50;99014.19;;;12.42;77.80
11041;BME280;5573;49.592;8.662;2023-02-24T10:54:22;99016.28;;;12.31;80.40
11041;BME280;5573;49.592;8.662;2023-02-24T10:57:20;99007.22;;;12.30;76.58
11041;BME280;5573;49.592;8.662;2023-02-24T11:00:15;98994.25;;;11.93;78.01
11041;BME280;5573;49.592;8.662;2023-02-24T11:03:17;98992.13;;;12.08;80.45
11041;BME280;5573;49.592;8.662;2023-02-24T11:06:01;98995.59;;;12.15;79.74
11041;BME280;5573;49.592;8.662;2023-02-24T11:08:56;98992.03;;;12.18;79.21
11041;BME280;5573;49.592;8.662;2023-02-24T11:11:45;98987.56;;;12.28;73.46
11041;BME280;5573;49.592;8.662;2023-02-24T11:14:45;98982.75;;;12.36;74.59
11041;BME280;5573;49.592;8.662;2023-02-24T11:17:31;98965.91;;;11.96;80.82
11041;BME280;5573;49.592;8.662;2023-02-24T11:20:00;98964.38;;;12.22;79.13
11041;BME280;5573;49.592;8.662;2023-02-24T11:22:38;98969.13;;;12.22;80.66
11041;BME280;5573;49.592;8.662;2023-02-24T11:25:22;98964.25;;;12.33;79.57
11041;BME280;5573;49.592;8.662;2023-02-24T11:27:51;98953.50;;;12.11;79.48
11041;BME280;5573;49.592;8.662;2023-02-24T11:30:26;98948.38;;;12.10;80.83
11041;BME280;5573;49.592;8.662;2023-02-24T11:33:09;98938.75;;;11.94;80.45
11041;BME280;5573;49.592;8.662;2023-02-24T11:35:47;98930.03;;;11.99;79.55
11041;BME280;5573;49.592;8.662;2023-02-24T11:38:28;98925.34;;;12.27;78.43
11041;BME280;5573;49.592;8.662;2023-02-24T11:41:04;98920.59;;;12.28;77.61
11041;BME280;5573;49.592;8.662;2023-02-24T11:43:37;98922.38;;;12.14;75.38
11041;BME280;5573;49.592;8.662;2023-02-24T11:46:11;98923.19;;;12.11;77.31
11041;BME280;5573;49.592;8.662;2023-02-24T11:48:44;98906.84;;;12.24;76.00
11041;BME280;5573;49.592;8.662;2023-02-24T11:51:16;98902.56;;;12.23;76.35
11041;BME280;5573;49.592;8.662;2023-02-24T11:53:48;98906.63;;;12.11;74.69
11041;BME280;5573;49.592;8.662;2023-02-24T11:56:22;98899.31;;;12.28;73.98
11041;BME280;5573;49.592;8.662;2023-02-24T11:58:55;98888.00;;;11.92;75.83
11041;BME280;5573;49.592;8.662;2023-02-24T12:01:27;98888.06;;;12.15;75.20
11041;BME280;5573;49.592;8.662;2023-02-24T12:04:03;98885.69;;;12.17;74.02
11041;BME280;5573;49.592;8.662;2023-02-24T12:06:38;98874.81;;;12.07;75.25
11041;BME280;5573;49.592;8.662;2023-02-24T12:09:12;98868.88;;;12.08;75.62
11041;BME280;5573;49.592;8.662;2023-02-24T12:11:51;98863.00;;;11.72;79.54
11041;BME280;5573;49.592;8.662;2023-02-24T12:14:25;98856.34;;;11.69;77.51
11041;BME280;5573;49.592;8.662;2023-02-24T12:17:01;98858.88;;;11.56;81.64
11041;BME280;5573;49.592;8.662;2023-02-24T12:19:34;98854.00;;;11.68;79.42
11041;BME280;5573;49.592;8.662;2023-02-24T12:22:10;98842.25;;;11.64;82.13
11041;BME280;5573;49.592;8.662;2023-02-24T12:24:41;98845.53;;;11.86;79.29
11041;BME280;5573;49.592;8.662;2023-02-24T12:27:18;98842.16;;;12.02;76.44
11041;BME280;5573;49.592;8.662;2023-02-24T12:30:04;98800.34;;;11.79;78.93
11041;BME280;5573;49.592;8.662;2023-02-24T12:32:55;98833.69;;;12.43;78.06
11041;BME280;5573;49.592;8.662;2023-02-24T12:35:32;98823.53;;;12.64;75.26
11041;BME280;5573;49.592;8.662;2023-02-24T12:38:17;98830.34;;;12.55;74.89
11041;BME280;5573;49.592;8.662;2023-02-24T12:40:52;98818.00;;;12.40;75.70
11041;BME280;5573;49.592;8.662;2023-02-24T12:43:30;98814.03;;;12.41;77.77
11041;BME280;5573;49.592;8.662;2023-02-24T12:46:05;98815.47;;;12.26;77.07
11041;BME280;5573;49.592;8.662;2023-02-24T12:48:55;98807.22;;;12.22;76.09
11041;BME280;5573;49.592;8.662;2023-02-24T12:51:29;98804.94;;;12.68;75.30
11041;BME280;5573;49.592;8.662;2023-02-24T12:54:05;98798.72;;;13.27;71.55
11041;BME280;5573;49.592;8.662;2023-02-24T12:56:45;98800.81;;;13.43;69.56
11041;BME280;5573;49.592;8.662;2023-02-24T12:59:22;98794.28;;;13.53;66.99
11041;BME280;5573;49.592;8.662;2023-02-24T13:01:57;98784.97;;;13.83;64.95
11041;BME280;5573;49.592;8.662;2023-02-24T13:04:36;98772.38;;;13.99;65.65
11041;BME280;5573;49.592;8.662;2023-02-24T13:07:11;98772.03;;;13.60;65.11
11041;BME280;5573;49.592;8.662;2023-02-24T13:09:49;98764.81;;;13.27;65.45
11041;BME280;5573;49.592;8.662;2023-02-24T13:12:24;98752.78;;;12.97;66.22
11041;BME280;5573;49.592;8.662;2023-02-24T13:14:55;98742.91;;;12.96;65.88
11041;BME280;5573;49.592;8.662;2023-02-24T13:17:24;98755.47;;;13.40;66.24
11041;BME280;5573;49.592;8.662;2023-02-24T13:19:54;98737.38;;;13.92;64.66
11041;BME280;5573;49.592;8.662;2023-02-24T13:22:25;98734.69;;;13.89;62.29
11041;BME280;5573;49.592;8.662;2023-02-24T13:25:09;98724.41;;;14.38;61.14
11041;BME280;5573;49.592;8.662;2023-02-24T13:27:41;98729.53;;;14.23;60.47
11041;BME280;5573;49.592;8.662;2023-02-24T13:30:26;98732.34;;;13.71;60.98
11041;BME280;5573;49.592;8.662;2023-02-24T13:33:02;98729.94;;;13.53;61.32
11041;BME280;5573;49.592;8.662;2023-02-24T13:35:33;98720.53;;;13.50;62.51
11041;BME280;5573;49.592;8.662;2023-02-24T13:38:19;98716.44;;;13.18;63.07
11041;BME280;5573;49.592;8.662;2023-02-24T13:40:48;98712.91;;;13.18;63.54
11041;BME280;5573;49.592;8.662;2023-02-24T13:43:23;98705.25;;;13.26;62.63
11041;BME280;5573;49.592;8.662;2023-02-24T13:45:58;98700.16;;;13.44;62.71
11041;BME280;5573;49.592;8.662;2023-02-24T13:48:50;98695.63;;;13.87;61.92
11041;BME280;5573;49.592;8.662;2023-02-24T13:54:33;98691.75;;;14.00;59.50
11041;BME280;5573;49.592;8.662;2023-02-24T13:57:31;98689.50;;;13.79;58.52